This is the latest recevied weather packets stored in our database for station/object SQ3RAX-13. If no packets are shown the sender has not sent any weather packets the latest 10 day(s).
| Time | Temp. | Humidity | Pressure | Rain* | Wind** | Luminosity | Snow |
|---|---|---|---|---|---|---|---|
| 1777671900 | 10.56° C | 70% | 1026 hPa | 0 mm | - | - | - |
| 1777670100 | 11.67° C | 63% | 1025 hPa | 0 mm | - | - | - |
| 1777669500 | 12.22° C | 65% | 1026 hPa | 0 mm | - | - | - |
| 1777668900 | 12.78° C | 64% | 1026 hPa | 0 mm | - | - | - |
| 1777667700 | 12.78° C | 60% | 1025 hPa | 0 mm | - | - | - |
| 1777667100 | 13.89° C | 54% | 1026 hPa | 0 mm | - | - | - |
| 1777666500 | 13.89° C | 54% | 1026 hPa | 0 mm | - | - | - |
| 1777664100 | 15° C | 54% | 1026 hPa | 0 mm | - | - | - |
| 1777662300 | 16.67° C | 50% | 1026 hPa | 0 mm | - | - | - |
| 1777661700 | 16.67° C | 50% | 1026 hPa | 0 mm | - | - | - |
| 1777661100 | 16.67° C | 50% | 1026 hPa | 0 mm | - | - | - |
| 1777660500 | 16.67° C | 49% | 1026 hPa | 0 mm | - | - | - |
| 1777659900 | 18.89° C | 34% | 1025 hPa | 0 mm | - | - | - |
| 1777659300 | 18.89° C | 34% | 1025 hPa | 0 mm | - | - | - |
| 1777656300 | 21.11° C | 34% | 1025 hPa | 0 mm | - | - | - |
| 1777655100 | 20.56° C | 43% | 1025 hPa | 0 mm | - | - | - |
| 1777654500 | 20.56° C | 42% | 1025 hPa | 0 mm | - | - | - |
| 1777653900 | 20.56° C | 42% | 1025 hPa | 0 mm | - | - | - |
| 1777653300 | 21.67° C | 27% | 1025 hPa | 0 mm | - | - | - |
| 1777650900 | 21.67° C | 42% | 1026 hPa | 0 mm | - | - | - |
| 1777649699 | 21.67° C | 38% | 1026 hPa | 0 mm | - | - | - |
| 1777649099 | 22.22° C | 29% | 1026 hPa | 0 mm | - | - | - |
| 1777648499 | 22.22° C | 30% | 1026 hPa | 0 mm | - | - | - |
| 1777647899 | 21.67° C | 34% | 1026 hPa | 0 mm | - | - | - |
| 1777646099 | 22.22° C | 30% | 1026 hPa | 0 mm | - | - | - |
* Rain latest hour (hover to see other rain measurements)
** Current wind speed in m/s (hover to see current wind gust speed)